sensor_id;sensor_type;location;lat;lon;timestamp;temperature;humidity
59505;DHT22;45321;53.200;5.814;2023-02-27T00:01:29;4.80;66.80
59505;DHT22;45321;53.200;5.814;2023-02-27T00:03:56;4.80;67.10
59505;DHT22;45321;53.200;5.814;2023-02-27T00:06:24;4.80;66.70
59505;DHT22;45321;53.200;5.814;2023-02-27T00:08:50;4.80;67.40
59505;DHT22;45321;53.200;5.814;2023-02-27T00:11:16;4.80;67.20
59505;DHT22;45321;53.200;5.814;2023-02-27T00:13:41;4.80;66.80
59505;DHT22;45321;53.200;5.814;2023-02-27T00:16:07;4.80;66.80
59505;DHT22;45321;53.200;5.814;2023-02-27T00:18:33;4.80;67.00
59505;DHT22;45321;53.200;5.814;2023-02-27T00:20:59;4.90;66.90
59505;DHT22;45321;53.200;5.814;2023-02-27T00:23:24;4.80;67.10
59505;DHT22;45321;53.200;5.814;2023-02-27T00:25:50;4.90;67.30
59505;DHT22;45321;53.200;5.814;2023-02-27T00:28:16;4.90;67.30
59505;DHT22;45321;53.200;5.814;2023-02-27T00:30:42;4.90;67.20
59505;DHT22;45321;53.200;5.814;2023-02-27T00:33:08;4.90;67.40
59505;DHT22;45321;53.200;5.814;2023-02-27T00:35:34;4.80;67.60
59505;DHT22;45321;53.200;5.814;2023-02-27T00:38:00;4.80;67.50
59505;DHT22;45321;53.200;5.814;2023-02-27T00:40:25;4.80;68.00
59505;DHT22;45321;53.200;5.814;2023-02-27T00:42:52;4.70;68.00
59505;DHT22;45321;53.200;5.814;2023-02-27T00:45:18;4.70;68.10
59505;DHT22;45321;53.200;5.814;2023-02-27T00:47:47;4.70;68.20
59505;DHT22;45321;53.200;5.814;2023-02-27T00:50:13;4.70;68.30
59505;DHT22;45321;53.200;5.814;2023-02-27T00:52:39;4.70;68.20
59505;DHT22;45321;53.200;5.814;2023-02-27T00:55:05;4.70;68.10
59505;DHT22;45321;53.200;5.814;2023-02-27T00:57:31;4.60;68.30
59505;DHT22;45321;53.200;5.814;2023-02-27T00:59:57;4.60;68.70
59505;DHT22;45321;53.200;5.814;2023-02-27T01:02:22;4.60;68.70
59505;DHT22;45321;53.200;5.814;2023-02-27T01:04:48;4.50;68.60
59505;DHT22;45321;53.200;5.814;2023-02-27T01:07:14;4.40;68.70
59505;DHT22;45321;53.200;5.814;2023-02-27T01:09:40;4.40;68.80
59505;DHT22;45321;53.200;5.814;2023-02-27T01:12:06;4.30;68.90
59505;DHT22;45321;53.200;5.814;2023-02-27T01:14:32;4.30;68.80
59505;DHT22;45321;53.200;5.814;2023-02-27T01:16:57;4.30;68.80
59505;DHT22;45321;53.200;5.814;2023-02-27T01:19:24;4.30;69.00
59505;DHT22;45321;53.200;5.814;2023-02-27T01:21:50;4.30;69.00
59505;DHT22;45321;53.200;5.814;2023-02-27T01:24:15;4.20;68.90
59505;DHT22;45321;53.200;5.814;2023-02-27T01:26:42;4.20;69.30
59505;DHT22;45321;53.200;5.814;2023-02-27T01:29:09;4.20;69.50
59505;DHT22;45321;53.200;5.814;2023-02-27T01:31:35;4.20;69.70
59505;DHT22;45321;53.200;5.814;2023-02-27T01:34:01;4.20;69.90
59505;DHT22;45321;53.200;5.814;2023-02-27T01:36:26;4.10;70.00
59505;DHT22;45321;53.200;5.814;2023-02-27T01:38:52;4.10;70.20
59505;DHT22;45321;53.200;5.814;2023-02-27T01:41:18;4.10;70.30
59505;DHT22;45321;53.200;5.814;2023-02-27T01:44:16;4.00;70.40
59505;DHT22;45321;53.200;5.814;2023-02-27T01:46:42;4.00;70.50
59505;DHT22;45321;53.200;5.814;2023-02-27T01:51:53;4.00;70.20
59505;DHT22;45321;53.200;5.814;2023-02-27T01:54:23;4.00;70.40
59505;DHT22;45321;53.200;5.814;2023-02-27T01:56:51;4.00;70.40
59505;DHT22;45321;53.200;5.814;2023-02-27T01:59:17;4.00;70.50
59505;DHT22;45321;53.200;5.814;2023-02-27T02:01:44;3.90;70.40
59505;DHT22;45321;53.200;5.814;2023-02-27T02:04:29;3.90;70.60
59505;DHT22;45321;53.200;5.814;2023-02-27T02:07:07;3.90;70.90
59505;DHT22;45321;53.200;5.814;2023-02-27T02:09:40;3.80;70.60
59505;DHT22;45321;53.200;5.814;2023-02-27T02:12:07;3.80;70.60
59505;DHT22;45321;53.200;5.814;2023-02-27T02:14:33;3.80;70.80
59505;DHT22;45321;53.200;5.814;2023-02-27T02:25:15;3.60;71.70
59505;DHT22;45321;53.200;5.814;2023-02-27T02:27:56;3.60;71.80
59505;DHT22;45321;53.200;5.814;2023-02-27T02:39:08;3.50;72.10
59505;DHT22;45321;53.200;5.814;2023-02-27T02:44:20;3.50;72.10
59505;DHT22;45321;53.200;5.814;2023-02-27T02:47:11;3.50;72.10
59505;DHT22;45321;53.200;5.814;2023-02-27T02:55:45;3.60;71.90
59505;DHT22;45321;53.200;5.814;2023-02-27T02:58:25;3.60;71.90
59505;DHT22;45321;53.200;5.814;2023-02-27T03:00:56;3.60;71.70
59505;DHT22;45321;53.200;5.814;2023-02-27T03:03:34;3.60;71.90
59505;DHT22;45321;53.200;5.814;2023-02-27T03:06:04;3.60;71.90
59505;DHT22;45321;53.200;5.814;2023-02-27T03:08:39;3.60;71.90
59505;DHT22;45321;53.200;5.814;2023-02-27T03:11:06;3.60;71.90
59505;DHT22;45321;53.200;5.814;2023-02-27T03:13:48;3.50;72.40
59505;DHT22;45321;53.200;5.814;2023-02-27T03:16:30;3.50;72.30
59505;DHT22;45321;53.200;5.814;2023-02-27T03:21:37;3.40;72.60
59505;DHT22;45321;53.200;5.814;2023-02-27T03:24:07;3.40;72.90
59505;DHT22;45321;53.200;5.814;2023-02-27T03:26:39;3.40;73.00
59505;DHT22;45321;53.200;5.814;2023-02-27T03:29:09;3.40;72.90
59505;DHT22;45321;53.200;5.814;2023-02-27T03:31:59;3.40;73.10
59505;DHT22;45321;53.200;5.814;2023-02-27T03:34:31;3.40;73.00
59505;DHT22;45321;53.200;5.814;2023-02-27T03:40:16;3.50;73.40
59505;DHT22;45321;53.200;5.814;2023-02-27T03:42:54;3.50;73.40
59505;DHT22;45321;53.200;5.814;2023-02-27T03:47:55;3.50;73.10
59505;DHT22;45321;53.200;5.814;2023-02-27T03:50:21;3.60;73.10
59505;DHT22;45321;53.200;5.814;2023-02-27T03:52:46;3.60;73.00
59505;DHT22;45321;53.200;5.814;2023-02-27T03:55:26;3.60;73.00
59505;DHT22;45321;53.200;5.814;2023-02-27T03:57:54;3.60;73.50
59505;DHT22;45321;53.200;5.814;2023-02-27T04:00:22;3.60;73.60
59505;DHT22;45321;53.200;5.814;2023-02-27T04:02:50;3.70;73.80
59505;DHT22;45321;53.200;5.814;2023-02-27T04:05:17;3.80;74.00
59505;DHT22;45321;53.200;5.814;2023-02-27T04:07:56;3.80;74.20
59505;DHT22;45321;53.200;5.814;2023-02-27T04:13:24;3.80;74.60
59505;DHT22;45321;53.200;5.814;2023-02-27T04:22:04;3.90;74.60
59505;DHT22;45321;53.200;5.814;2023-02-27T04:27:23;3.90;73.90
59505;DHT22;45321;53.200;5.814;2023-02-27T04:30:04;3.90;74.10
59505;DHT22;45321;53.200;5.814;2023-02-27T04:32:48;4.00;74.90
59505;DHT22;45321;53.200;5.814;2023-02-27T04:35:28;4.00;74.80
59505;DHT22;45321;53.200;5.814;2023-02-27T04:38:16;4.00;74.50
59505;DHT22;45321;53.200;5.814;2023-02-27T04:41:04;4.00;74.50
59505;DHT22;45321;53.200;5.814;2023-02-27T04:43:31;4.00;74.40
59505;DHT22;45321;53.200;5.814;2023-02-27T04:45:59;4.00;74.50
59505;DHT22;45321;53.200;5.814;2023-02-27T04:48:31;4.00;74.40
59505;DHT22;45321;53.200;5.814;2023-02-27T04:51:08;4.00;74.30
59505;DHT22;45321;53.200;5.814;2023-02-27T04:56:34;4.00;74.00
59505;DHT22;45321;53.200;5.814;2023-02-27T04:59:24;4.00;74.10
59505;DHT22;45321;53.200;5.814;2023-02-27T05:01:56;4.00;74.00
59505;DHT22;45321;53.200;5.814;2023-02-27T05:04:25;4.00;74.00
59505;DHT22;45321;53.200;5.814;2023-02-27T05:06:52;4.00;74.00
59505;DHT22;45321;53.200;5.814;2023-02-27T05:09:36;4.00;74.00
59505;DHT22;45321;53.200;5.814;2023-02-27T05:12:09;4.00;74.00
59505;DHT22;45321;53.200;5.814;2023-02-27T05:14:41;4.00;74.10
59505;DHT22;45321;53.200;5.814;2023-02-27T05:19:40;4.00;74.30
59505;DHT22;45321;53.200;5.814;2023-02-27T05:22:50;4.00;73.80
59505;DHT22;45321;53.200;5.814;2023-02-27T05:25:27;4.00;73.70
59505;DHT22;45321;53.200;5.814;2023-02-27T05:27:59;4.10;73.60
59505;DHT22;45321;53.200;5.814;2023-02-27T05:33:17;4.00;73.60
59505;DHT22;45321;53.200;5.814;2023-02-27T05:36:10;4.00;73.70
59505;DHT22;45321;53.200;5.814;2023-02-27T05:38:43;3.90;73.80
59505;DHT22;45321;53.200;5.814;2023-02-27T05:41:33;3.90;74.10
59505;DHT22;45321;53.200;5.814;2023-02-27T05:44:42;3.90;74.00
59505;DHT22;45321;53.200;5.814;2023-02-27T05:47:12;3.90;74.20
59505;DHT22;45321;53.200;5.814;2023-02-27T05:50:02;3.90;74.00
59505;DHT22;45321;53.200;5.814;2023-02-27T05:52:30;3.80;73.90
59505;DHT22;45321;53.200;5.814;2023-02-27T05:55:01;3.80;73.90
59505;DHT22;45321;53.200;5.814;2023-02-27T05:57:39;3.80;73.90
59505;DHT22;45321;53.200;5.814;2023-02-27T06:00:12;3.80;74.10
59505;DHT22;45321;53.200;5.814;2023-02-27T06:02:41;3.80;74.20
59505;DHT22;45321;53.200;5.814;2023-02-27T06:05:08;3.80;74.10
59505;DHT22;45321;53.200;5.814;2023-02-27T06:07:34;3.80;74.00
59505;DHT22;45321;53.200;5.814;2023-02-27T06:10:00;3.70;73.90
59505;DHT22;45321;53.200;5.814;2023-02-27T06:12:26;3.70;73.70
59505;DHT22;45321;53.200;5.814;2023-02-27T06:14:51;3.70;73.80
59505;DHT22;45321;53.200;5.814;2023-02-27T06:17:17;3.70;73.70
59505;DHT22;45321;53.200;5.814;2023-02-27T06:19:43;3.70;73.90
59505;DHT22;45321;53.200;5.814;2023-02-27T06:22:10;3.60;73.80
59505;DHT22;45321;53.200;5.814;2023-02-27T06:24:37;3.60;74.00
59505;DHT22;45321;53.200;5.814;2023-02-27T06:27:02;3.60;74.20
59505;DHT22;45321;53.200;5.814;2023-02-27T06:29:28;3.50;74.40
59505;DHT22;45321;53.200;5.814;2023-02-27T06:31:54;3.50;74.50
59505;DHT22;45321;53.200;5.814;2023-02-27T06:34:20;3.50;74.70
59505;DHT22;45321;53.200;5.814;2023-02-27T06:36:46;3.50;74.60
59505;DHT22;45321;53.200;5.814;2023-02-27T06:39:13;3.50;74.40
59505;DHT22;45321;53.200;5.814;2023-02-27T06:41:39;3.60;74.80
59505;DHT22;45321;53.200;5.814;2023-02-27T06:44:05;3.50;74.90
59505;DHT22;45321;53.200;5.814;2023-02-27T06:46:30;3.50;74.70
59505;DHT22;45321;53.200;5.814;2023-02-27T06:48:56;3.50;74.50
59505;DHT22;45321;53.200;5.814;2023-02-27T06:51:22;3.50;74.70
59505;DHT22;45321;53.200;5.814;2023-02-27T06:53:47;3.60;74.70
59505;DHT22;45321;53.200;5.814;2023-02-27T06:56:13;3.60;74.50
59505;DHT22;45321;53.200;5.814;2023-02-27T06:58:39;3.70;74.50
59505;DHT22;45321;53.200;5.814;2023-02-27T07:01:05;3.70;74.30
59505;DHT22;45321;53.200;5.814;2023-02-27T07:03:30;3.80;74.50
59505;DHT22;45321;53.200;5.814;2023-02-27T07:05:56;3.70;74.60
59505;DHT22;45321;53.200;5.814;2023-02-27T07:08:23;3.80;74.70
59505;DHT22;45321;53.200;5.814;2023-02-27T07:10:49;3.80;74.60
59505;DHT22;45321;53.200;5.814;2023-02-27T07:13:16;3.80;74.60
59505;DHT22;45321;53.200;5.814;2023-02-27T07:15:42;3.80;74.70
59505;DHT22;45321;53.200;5.814;2023-02-27T07:18:09;3.80;74.80
59505;DHT22;45321;53.200;5.814;2023-02-27T07:20:35;3.90;74.60
59505;DHT22;45321;53.200;5.814;2023-02-27T07:23:01;3.90;74.60
59505;DHT22;45321;53.200;5.814;2023-02-27T07:25:27;3.90;74.70
59505;DHT22;45321;53.200;5.814;2023-02-27T07:27:52;3.90;74.60
59505;DHT22;45321;53.200;5.814;2023-02-27T07:30:18;4.00;74.40
59505;DHT22;45321;53.200;5.814;2023-02-27T07:32:44;4.00;74.30
59505;DHT22;45321;53.200;5.814;2023-02-27T07:35:10;4.10;74.30
59505;DHT22;45321;53.200;5.814;2023-02-27T07:37:37;4.10;74.20
59505;DHT22;45321;53.200;5.814;2023-02-27T07:40:03;4.10;74.20
59505;DHT22;45321;53.200;5.814;2023-02-27T07:42:29;4.10;74.40
59505;DHT22;45321;53.200;5.814;2023-02-27T07:44:55;4.20;74.30
59505;DHT22;45321;53.200;5.814;2023-02-27T07:47:21;4.20;74.30
59505;DHT22;45321;53.200;5.814;2023-02-27T07:49:47;4.20;74.50
59505;DHT22;45321;53.200;5.814;2023-02-27T07:52:13;4.30;74.60
59505;DHT22;45321;53.200;5.814;2023-02-27T07:54:38;4.30;74.40
59505;DHT22;45321;53.200;5.814;2023-02-27T07:57:05;4.30;74.40
59505;DHT22;45321;53.200;5.814;2023-02-27T07:59:31;4.30;74.30
59505;DHT22;45321;53.200;5.814;2023-02-27T08:01:56;4.40;74.40
59505;DHT22;45321;53.200;5.814;2023-02-27T08:04:23;4.40;74.30
59505;DHT22;45321;53.200;5.814;2023-02-27T08:06:48;4.50;74.10
59505;DHT22;45321;53.200;5.814;2023-02-27T08:09:14;4.50;74.30
59505;DHT22;45321;53.200;5.814;2023-02-27T08:11:40;4.60;74.00
59505;DHT22;45321;53.200;5.814;2023-02-27T08:14:06;4.60;73.90
59505;DHT22;45321;53.200;5.814;2023-02-27T08:16:32;4.70;73.90
59505;DHT22;45321;53.200;5.814;2023-02-27T08:18:59;4.80;74.10
59505;DHT22;45321;53.200;5.814;2023-02-27T08:21:25;4.80;74.10
59505;DHT22;45321;53.200;5.814;2023-02-27T08:23:51;4.80;74.30
59505;DHT22;45321;53.200;5.814;2023-02-27T08:26:17;4.90;74.00
59505;DHT22;45321;53.200;5.814;2023-02-27T08:28:43;4.90;74.10
59505;DHT22;45321;53.200;5.814;2023-02-27T08:31:08;4.90;74.00
59505;DHT22;45321;53.200;5.814;2023-02-27T08:33:35;4.90;74.20
59505;DHT22;45321;53.200;5.814;2023-02-27T08:36:00;5.00;74.40
59505;DHT22;45321;53.200;5.814;2023-02-27T08:38:27;5.00;74.40
59505;DHT22;45321;53.200;5.814;2023-02-27T08:40:53;5.10;74.20
59505;DHT22;45321;53.200;5.814;2023-02-27T08:43:22;5.20;74.50
59505;DHT22;45321;53.200;5.814;2023-02-27T08:45:48;5.30;74.50
59505;DHT22;45321;53.200;5.814;2023-02-27T08:48:14;5.30;74.00
59505;DHT22;45321;53.200;5.814;2023-02-27T08:50:43;5.50;74.20
59505;DHT22;45321;53.200;5.814;2023-02-27T08:53:09;5.60;74.10
59505;DHT22;45321;53.200;5.814;2023-02-27T08:55:35;5.70;73.50
59505;DHT22;45321;53.200;5.814;2023-02-27T08:58:01;5.80;73.40
59505;DHT22;45321;53.200;5.814;2023-02-27T09:00:27;5.80;73.50
59505;DHT22;45321;53.200;5.814;2023-02-27T09:02:53;5.90;73.00
59505;DHT22;45321;53.200;5.814;2023-02-27T09:05:19;6.00;72.70
59505;DHT22;45321;53.200;5.814;2023-02-27T09:07:45;6.00;72.40
59505;DHT22;45321;53.200;5.814;2023-02-27T09:10:11;6.10;72.60
59505;DHT22;45321;53.200;5.814;2023-02-27T09:12:38;6.20;72.30
59505;DHT22;45321;53.200;5.814;2023-02-27T09:15:08;6.30;72.10
59505;DHT22;45321;53.200;5.814;2023-02-27T09:17:37;6.40;71.80
59505;DHT22;45321;53.200;5.814;2023-02-27T09:20:05;6.40;71.40
59505;DHT22;45321;53.200;5.814;2023-02-27T09:22:34;6.60;71.40
59505;DHT22;45321;53.200;5.814;2023-02-27T09:25:00;6.60;71.00
59505;DHT22;45321;53.200;5.814;2023-02-27T09:27:28;6.70;70.60
59505;DHT22;45321;53.200;5.814;2023-02-27T09:29:56;6.80;70.60
59505;DHT22;45321;53.200;5.814;2023-02-27T09:32:24;6.80;70.30
59505;DHT22;45321;53.200;5.814;2023-02-27T09:34:50;7.00;70.00
59505;DHT22;45321;53.200;5.814;2023-02-27T09:37:19;7.00;69.90
59505;DHT22;45321;53.200;5.814;2023-02-27T09:39:45;7.10;68.90
59505;DHT22;45321;53.200;5.814;2023-02-27T09:42:18;7.10;69.10
59505;DHT22;45321;53.200;5.814;2023-02-27T09:45:00;7.20;68.80
59505;DHT22;45321;53.200;5.814;2023-02-27T09:47:30;7.30;68.30
59505;DHT22;45321;53.200;5.814;2023-02-27T09:50:04;7.30;68.20
59505;DHT22;45321;53.200;5.814;2023-02-27T09:52:32;7.40;67.90
59505;DHT22;45321;53.200;5.814;2023-02-27T09:54:59;7.50;67.50
59505;DHT22;45321;53.200;5.814;2023-02-27T09:57:46;7.60;67.80
59505;DHT22;45321;53.200;5.814;2023-02-27T10:06:18;7.80;65.90
59505;DHT22;45321;53.200;5.814;2023-02-27T10:09:08;7.80;66.30
59505;DHT22;45321;53.200;5.814;2023-02-27T10:17:01;8.00;64.70
59505;DHT22;45321;53.200;5.814;2023-02-27T10:19:31;7.90;63.80
59505;DHT22;45321;53.200;5.814;2023-02-27T10:21:59;7.90;64.70
59505;DHT22;45321;53.200;5.814;2023-02-27T10:24:32;8.10;64.80
59505;DHT22;45321;53.200;5.814;2023-02-27T10:27:05;8.20;63.70
59505;DHT22;45321;53.200;5.814;2023-02-27T10:29:33;8.30;62.70
59505;DHT22;45321;53.200;5.814;2023-02-27T10:32:08;8.30;61.90
59505;DHT22;45321;53.200;5.814;2023-02-27T10:34:37;8.30;62.60
59505;DHT22;45321;53.200;5.814;2023-02-27T10:37:04;8.40;62.80
59505;DHT22;45321;53.200;5.814;2023-02-27T10:39:52;8.40;61.20
59505;DHT22;45321;53.200;5.814;2023-02-27T10:42:20;8.60;61.70
59505;DHT22;45321;53.200;5.814;2023-02-27T10:44:48;8.60;61.40
59505;DHT22;45321;53.200;5.814;2023-02-27T10:47:21;8.70;60.80
59505;DHT22;45321;53.200;5.814;2023-02-27T10:49:47;8.80;60.40
59505;DHT22;45321;53.200;5.814;2023-02-27T10:52:14;8.80;60.00
59505;DHT22;45321;53.200;5.814;2023-02-27T10:54:41;8.90;59.70
59505;DHT22;45321;53.200;5.814;2023-02-27T10:57:29;9.00;59.50
59505;DHT22;45321;53.200;5.814;2023-02-27T11:00:03;9.10;57.60
59505;DHT22;45321;53.200;5.814;2023-02-27T11:02:35;9.20;56.10
59505;DHT22;45321;53.200;5.814;2023-02-27T11:05:03;9.30;55.70
59505;DHT22;45321;53.200;5.814;2023-02-27T11:07:34;9.50;55.40
59505;DHT22;45321;53.200;5.814;2023-02-27T11:12:37;9.90;54.70
59505;DHT22;45321;53.200;5.814;2023-02-27T11:15:22;10.20;54.30
59505;DHT22;45321;53.200;5.814;2023-02-27T11:17:48;10.50;52.70
59505;DHT22;45321;53.200;5.814;2023-02-27T11:23:19;11.00;49.80
59505;DHT22;45321;53.200;5.814;2023-02-27T11:25:46;11.10;47.90
59505;DHT22;45321;53.200;5.814;2023-02-27T11:28:17;11.20;47.60
59505;DHT22;45321;53.200;5.814;2023-02-27T11:30:59;11.40;46.40
59505;DHT22;45321;53.200;5.814;2023-02-27T11:33:26;11.70;45.80
59505;DHT22;45321;53.200;5.814;2023-02-27T11:35:54;11.90;46.10
59505;DHT22;45321;53.200;5.814;2023-02-27T11:38:26;12.20;45.60
59505;DHT22;45321;53.200;5.814;2023-02-27T11:40:59;12.50;44.90
59505;DHT22;45321;53.200;5.814;2023-02-27T11:43:31;12.80;43.70
59505;DHT22;45321;53.200;5.814;2023-02-27T11:46:06;12.80;43.10
59505;DHT22;45321;53.200;5.814;2023-02-27T11:48:54;12.80;42.30
59505;DHT22;45321;53.200;5.814;2023-02-27T11:54:08;13.20;40.60
59505;DHT22;45321;53.200;5.814;2023-02-27T11:56:40;13.30;40.40
59505;DHT22;45321;53.200;5.814;2023-02-27T12:04:50;14.10;40.20
59505;DHT22;45321;53.200;5.814;2023-02-27T12:07:49;14.50;40.00
59505;DHT22;45321;53.200;5.814;2023-02-27T12:10:21;14.70;39.90
59505;DHT22;45321;53.200;5.814;2023-02-27T12:13:02;15.00;39.10
59505;DHT22;45321;53.200;5.814;2023-02-27T12:15:46;15.00;38.40
59505;DHT22;45321;53.200;5.814;2023-02-27T12:20:57;15.30;37.60
59505;DHT22;45321;53.200;5.814;2023-02-27T12:23:59;15.30;37.20
59505;DHT22;45321;53.200;5.814;2023-02-27T12:26:45;15.30;37.60
59505;DHT22;45321;53.200;5.814;2023-02-27T12:29:33;15.30;37.30
59505;DHT22;45321;53.200;5.814;2023-02-27T12:32:10;15.30;37.00
59505;DHT22;45321;53.200;5.814;2023-02-27T12:34:47;15.50;37.00
59505;DHT22;45321;53.200;5.814;2023-02-27T12:37:19;15.70;36.70
59505;DHT22;45321;53.200;5.814;2023-02-27T12:39:46;15.80;36.40
59505;DHT22;45321;53.200;5.814;2023-02-27T12:50:41;16.40;34.00
59505;DHT22;45321;53.200;5.814;2023-02-27T12:56:19;16.70;34.80
59505;DHT22;45321;53.200;5.814;2023-02-27T12:59:10;16.90;33.80
59505;DHT22;45321;53.200;5.814;2023-02-27T13:01:59;17.10;34.50
59505;DHT22;45321;53.200;5.814;2023-02-27T13:07:03;17.50;33.30
59505;DHT22;45321;53.200;5.814;2023-02-27T13:09:54;17.60;33.50
59505;DHT22;45321;53.200;5.814;2023-02-27T13:15:01;17.80;32.50
59505;DHT22;45321;53.200;5.814;2023-02-27T13:17:41;18.00;32.30
59505;DHT22;45321;53.200;5.814;2023-02-27T13:20:32;18.30;31.90
59505;DHT22;45321;53.200;5.814;2023-02-27T13:25:37;18.70;31.00
59505;DHT22;45321;53.200;5.814;2023-02-27T13:28:06;18.70;29.70
59505;DHT22;45321;53.200;5.814;2023-02-27T13:30:42;19.00;30.70
59505;DHT22;45321;53.200;5.814;2023-02-27T13:33:27;19.20;31.30
59505;DHT22;45321;53.200;5.814;2023-02-27T13:36:21;19.50;30.80
59505;DHT22;45321;53.200;5.814;2023-02-27T13:38:54;19.80;29.90
59505;DHT22;45321;53.200;5.814;2023-02-27T13:43:51;20.10;30.00
59505;DHT22;45321;53.200;5.814;2023-02-27T13:46:23;20.20;30.60
59505;DHT22;45321;53.200;5.814;2023-02-27T13:59:24;20.60;30.00
59505;DHT22;45321;53.200;5.814;2023-02-27T14:01:57;20.80;29.80
59505;DHT22;45321;53.200;5.814;2023-02-27T14:04:28;21.00;29.60
59505;DHT22;45321;53.200;5.814;2023-02-27T14:07:00;21.20;30.20
59505;DHT22;45321;53.200;5.814;2023-02-27T14:09:33;21.30;30.60
59505;DHT22;45321;53.200;5.814;2023-02-27T14:12:02;21.50;29.90
59505;DHT22;45321;53.200;5.814;2023-02-27T14:14:42;21.60;30.50
59505;DHT22;45321;53.200;5.814;2023-02-27T14:19:58;20.70;30.40
59505;DHT22;45321;53.200;5.814;2023-02-27T14:22:31;20.40;31.30
59505;DHT22;45321;53.200;5.814;2023-02-27T14:25:19;20.20;32.00
59505;DHT22;45321;53.200;5.814;2023-02-27T14:27:56;20.30;32.50
59505;DHT22;45321;53.200;5.814;2023-02-27T14:30:39;20.50;31.00
59505;DHT22;45321;53.200;5.814;2023-02-27T14:33:20;20.70;32.00
59505;DHT22;45321;53.200;5.814;2023-02-27T14:35:58;20.90;31.20
59505;DHT22;45321;53.200;5.814;2023-02-27T14:38:28;20.70;31.30
59505;DHT22;45321;53.200;5.814;2023-02-27T14:41:35;20.80;30.80
59505;DHT22;45321;53.200;5.814;2023-02-27T14:44:04;21.10;31.60
59505;DHT22;45321;53.200;5.814;2023-02-27T14:46:38;21.50;31.10
59505;DHT22;45321;53.200;5.814;2023-02-27T14:49:14;21.20;30.10
59505;DHT22;45321;53.200;5.814;2023-02-27T14:51:42;20.60;31.20
59505;DHT22;45321;53.200;5.814;2023-02-27T14:54:20;20.20;32.20
59505;DHT22;45321;53.200;5.814;2023-02-27T14:56:57;20.60;32.50
59505;DHT22;45321;53.200;5.814;2023-02-27T14:59:44;21.20;31.90
59505;DHT22;45321;53.200;5.814;2023-02-27T15:02:19;21.30;30.80
59505;DHT22;45321;53.200;5.814;2023-02-27T15:04:46;21.50;31.30
59505;DHT22;45321;53.200;5.814;2023-02-27T15:07:19;21.60;32.10
59505;DHT22;45321;53.200;5.814;2023-02-27T15:09:54;21.70;31.60
59505;DHT22;45321;53.200;5.814;2023-02-27T15:12:21;22.00;31.40
59505;DHT22;45321;53.200;5.814;2023-02-27T15:14:59;22.40;31.30
59505;DHT22;45321;53.200;5.814;2023-02-27T15:17:46;22.70;30.50
59505;DHT22;45321;53.200;5.814;2023-02-27T15:20:35;23.00;30.10
59505;DHT22;45321;53.200;5.814;2023-02-27T15:23:22;23.40;30.00
59505;DHT22;45321;53.200;5.814;2023-02-27T15:25:49;23.50;29.20
59505;DHT22;45321;53.200;5.814;2023-02-27T15:28:23;23.30;28.40
59505;DHT22;45321;53.200;5.814;2023-02-27T15:30:53;23.30;29.30
59505;DHT22;45321;53.200;5.814;2023-02-27T15:33:26;23.20;29.30
59505;DHT22;45321;53.200;5.814;2023-02-27T15:35:53;22.50;29.80
59505;DHT22;45321;53.200;5.814;2023-02-27T15:38:28;21.70;31.00
59505;DHT22;45321;53.200;5.814;2023-02-27T15:40:55;20.80;32.10
59505;DHT22;45321;53.200;5.814;2023-02-27T15:43:22;20.10;33.20
59505;DHT22;45321;53.200;5.814;2023-02-27T15:45:49;19.70;33.50
59505;DHT22;45321;53.200;5.814;2023-02-27T15:48:16;19.10;32.80
59505;DHT22;45321;53.200;5.814;2023-02-27T15:50:48;18.30;34.30
59505;DHT22;45321;53.200;5.814;2023-02-27T15:53:19;17.60;35.20
59505;DHT22;45321;53.200;5.814;2023-02-27T15:55:54;17.00;36.20
59505;DHT22;45321;53.200;5.814;2023-02-27T15:58:27;16.70;37.10
59505;DHT22;45321;53.200;5.814;2023-02-27T16:03:37;16.00;38.90
59505;DHT22;45321;53.200;5.814;2023-02-27T16:06:24;16.00;39.40
59505;DHT22;45321;53.200;5.814;2023-02-27T16:09:22;16.20;39.50
59505;DHT22;45321;53.200;5.814;2023-02-27T16:12:28;16.80;38.90
59505;DHT22;45321;53.200;5.814;2023-02-27T16:15:27;17.10;38.80
59505;DHT22;45321;53.200;5.814;2023-02-27T16:23:03;18.40;37.60
59505;DHT22;45321;53.200;5.814;2023-02-27T16:25:29;18.30;37.40
59505;DHT22;45321;53.200;5.814;2023-02-27T16:27:55;17.80;38.00
59505;DHT22;45321;53.200;5.814;2023-02-27T16:30:21;17.20;38.80
59505;DHT22;45321;53.200;5.814;2023-02-27T16:32:47;16.60;39.50
59505;DHT22;45321;53.200;5.814;2023-02-27T16:35:20;16.00;40.30
59505;DHT22;45321;53.200;5.814;2023-02-27T16:37:46;15.50;41.10
59505;DHT22;45321;53.200;5.814;2023-02-27T16:40:18;15.10;42.10
59505;DHT22;45321;53.200;5.814;2023-02-27T16:42:45;14.80;42.90
59505;DHT22;45321;53.200;5.814;2023-02-27T16:45:19;14.50;43.70
59505;DHT22;45321;53.200;5.814;2023-02-27T16:47:48;14.30;44.00
59505;DHT22;45321;53.200;5.814;2023-02-27T16:50:37;14.00;44.60
59505;DHT22;45321;53.200;5.814;2023-02-27T16:53:04;13.90;45.20
59505;DHT22;45321;53.200;5.814;2023-02-27T16:55:31;13.80;45.80
59505;DHT22;45321;53.200;5.814;2023-02-27T16:57:56;13.60;46.10
59505;DHT22;45321;53.200;5.814;2023-02-27T17:00:22;13.40;46.70
59505;DHT22;45321;53.200;5.814;2023-02-27T17:02:49;13.30;47.20
59505;DHT22;45321;53.200;5.814;2023-02-27T17:05:16;13.10;47.60
59505;DHT22;45321;53.200;5.814;2023-02-27T17:07:43;13.00;47.80
59505;DHT22;45321;53.200;5.814;2023-02-27T17:10:20;12.80;48.20
59505;DHT22;45321;53.200;5.814;2023-02-27T17:12:46;12.80;48.80
59505;DHT22;45321;53.200;5.814;2023-02-27T17:15:13;12.70;49.10
59505;DHT22;45321;53.200;5.814;2023-02-27T17:17:40;12.70;49.20
59505;DHT22;45321;53.200;5.814;2023-02-27T17:20:06;12.50;49.50
59505;DHT22;45321;53.200;5.814;2023-02-27T17:22:40;12.40;49.90
59505;DHT22;45321;53.200;5.814;2023-02-27T17:25:07;12.30;50.00
59505;DHT22;45321;53.200;5.814;2023-02-27T17:27:33;12.30;50.40
59505;DHT22;45321;53.200;5.814;2023-02-27T17:29:59;12.30;50.50
59505;DHT22;45321;53.200;5.814;2023-02-27T17:32:25;12.10;50.80
59505;DHT22;45321;53.200;5.814;2023-02-27T17:34:52;12.10;51.00
59505;DHT22;45321;53.200;5.814;2023-02-27T17:37:18;11.90;51.40
59505;DHT22;45321;53.200;5.814;2023-02-27T17:39:44;11.80;51.70
59505;DHT22;45321;53.200;5.814;2023-02-27T17:42:10;11.80;51.90
59505;DHT22;45321;53.200;5.814;2023-02-27T17:44:37;11.70;52.20
59505;DHT22;45321;53.200;5.814;2023-02-27T17:47:03;11.70;52.60
59505;DHT22;45321;53.200;5.814;2023-02-27T17:49:28;11.60;53.00
59505;DHT22;45321;53.200;5.814;2023-02-27T17:51:54;11.50;53.20
59505;DHT22;45321;53.200;5.814;2023-02-27T17:54:20;11.40;53.60
59505;DHT22;45321;53.200;5.814;2023-02-27T17:56:46;11.30;53.80
59505;DHT22;45321;53.200;5.814;2023-02-27T17:59:12;11.40;54.00
59505;DHT22;45321;53.200;5.814;2023-02-27T18:01:37;11.30;54.20
59505;DHT22;45321;53.200;5.814;2023-02-27T18:04:03;11.30;54.30
59505;DHT22;45321;53.200;5.814;2023-02-27T18:06:31;11.30;54.40
59505;DHT22;45321;53.200;5.814;2023-02-27T18:08:57;11.10;54.50
59505;DHT22;45321;53.200;5.814;2023-02-27T18:11:22;11.10;54.90
59505;DHT22;45321;53.200;5.814;2023-02-27T18:13:48;11.00;55.20